createdAt,value
2023-04-21T00:01:29.772Z,54.90
2023-04-21T00:03:56.890Z,54.79
2023-04-21T00:06:24.000Z,54.77
2023-04-21T00:08:51.027Z,54.81
2023-04-21T00:11:18.434Z,54.77
2023-04-21T00:13:45.786Z,54.79
2023-04-21T00:16:14.043Z,54.67
2023-04-21T00:18:41.260Z,54.74
2023-04-21T00:21:08.173Z,54.76
2023-04-21T00:23:35.215Z,54.78
2023-04-21T00:26:02.816Z,54.78
2023-04-21T00:28:30.264Z,54.79
2023-04-21T00:30:57.213Z,54.65
2023-04-21T00:33:26.491Z,54.64
2023-04-21T00:35:54.429Z,54.63
2023-04-21T00:38:21.362Z,54.60
2023-04-21T00:40:48.300Z,54.77
2023-04-21T00:43:15.238Z,54.78
2023-04-21T00:45:45.257Z,54.60
2023-04-21T00:48:12.258Z,54.61
2023-04-21T00:50:41.193Z,54.73
2023-04-21T00:53:09.570Z,54.69
2023-04-21T00:55:36.894Z,54.50
2023-04-21T00:58:04.165Z,54.82
2023-04-21T01:00:31.626Z,54.80
2023-04-21T01:03:01.545Z,54.80
2023-04-21T01:05:28.583Z,54.78
2023-04-21T01:07:56.931Z,54.74
2023-04-21T01:10:24.124Z,54.83
2023-04-21T01:12:51.046Z,54.86
2023-04-21T01:15:18.127Z,54.77
2023-04-21T01:17:45.429Z,54.86
2023-04-21T01:20:15.241Z,54.42
2023-04-21T01:22:44.885Z,54.83
2023-04-21T01:25:11.871Z,54.96
2023-04-21T01:27:38.777Z,55.03
2023-04-21T01:30:09.890Z,54.85
2023-04-21T01:32:37.078Z,55.06
2023-04-21T01:35:06.438Z,55.29
2023-04-21T01:37:34.201Z,55.17
2023-04-21T01:40:07.203Z,54.97
2023-04-21T01:42:36.648Z,55.16
2023-04-21T01:45:04.600Z,55.36
2023-04-21T01:47:32.052Z,55.32
2023-04-21T01:50:00.218Z,55.21
2023-04-21T01:52:27.210Z,55.28
2023-04-21T01:54:54.942Z,55.30
2023-04-21T01:57:23.222Z,55.37
2023-04-21T01:59:50.145Z,55.56
2023-04-21T02:02:17.065Z,55.49
2023-04-21T02:04:44.003Z,55.60
2023-04-21T02:07:10.855Z,55.37
2023-04-21T02:09:37.727Z,55.59
2023-04-21T02:12:05.433Z,55.55
2023-04-21T02:14:33.715Z,55.68
2023-04-21T02:17:03.303Z,55.60
2023-04-21T02:19:30.612Z,55.51
2023-04-21T02:21:57.472Z,55.63
2023-04-21T02:24:24.447Z,55.58
2023-04-21T02:26:51.428Z,55.63
2023-04-21T02:29:18.578Z,55.63
2023-04-21T02:31:57.892Z,55.71
2023-04-21T02:34:30.125Z,55.58
2023-04-21T02:36:57.048Z,55.79
2023-04-21T02:39:23.939Z,55.58
2023-04-21T02:41:50.871Z,55.46
2023-04-21T02:44:17.982Z,55.65
2023-04-21T02:46:46.294Z,55.58
2023-04-21T02:49:13.433Z,55.80
2023-04-21T02:51:40.540Z,55.88
2023-04-21T02:54:07.510Z,55.79
2023-04-21T02:56:34.656Z,55.84
2023-04-21T02:59:01.612Z,55.72
2023-04-21T03:01:28.492Z,55.81
2023-04-21T03:03:56.911Z,55.79
2023-04-21T03:06:24.126Z,55.94
2023-04-21T03:08:52.043Z,55.76
2023-04-21T03:11:18.935Z,55.89
2023-04-21T03:13:46.031Z,55.66
2023-04-21T03:16:13.448Z,55.46
2023-04-21T03:18:40.527Z,55.42
2023-04-21T03:21:08.723Z,55.50
2023-04-21T03:23:35.697Z,55.60
2023-04-21T03:26:07.165Z,55.26
2023-04-21T03:28:34.188Z,55.38
2023-04-21T03:31:01.113Z,55.55
2023-04-21T03:33:28.095Z,55.50
2023-04-21T03:35:54.957Z,55.27
2023-04-21T03:38:23.148Z,55.49
2023-04-21T03:40:51.017Z,55.51
2023-04-21T03:43:18.013Z,55.58
2023-04-21T03:45:44.973Z,55.42
2023-04-21T03:48:12.015Z,55.42
2023-04-21T03:50:39.169Z,55.46
2023-04-21T03:53:06.096Z,55.40
2023-04-21T03:55:34.282Z,55.26
2023-04-21T03:58:01.130Z,55.35
2023-04-21T04:00:28.007Z,55.18
2023-04-21T04:02:55.069Z,55.34
2023-04-21T04:05:22.354Z,55.06
2023-04-21T04:07:49.314Z,55.12
2023-04-21T04:10:16.326Z,55.01
2023-04-21T04:12:44.576Z,55.17
2023-04-21T04:15:11.759Z,55.23
2023-04-21T04:17:38.656Z,54.93
2023-04-21T04:20:08.245Z,55.04
2023-04-21T04:22:35.370Z,55.05
2023-04-21T04:25:02.662Z,54.93
2023-04-21T04:27:29.714Z,54.90
2023-04-21T04:29:57.908Z,54.71
2023-04-21T04:32:28.249Z,54.88
2023-04-21T04:34:58.779Z,54.68
2023-04-21T04:37:25.664Z,54.50
2023-04-21T04:39:53.927Z,54.66
2023-04-21T04:42:20.967Z,54.50
2023-04-21T04:44:48.043Z,54.47
2023-04-21T04:47:16.316Z,54.45
2023-04-21T04:49:43.389Z,54.41
2023-04-21T04:52:10.408Z,54.48
2023-04-21T04:54:37.322Z,54.25
2023-04-21T04:57:04.440Z,54.18
2023-04-21T04:59:31.477Z,54.06
2023-04-21T05:01:58.514Z,54.12
2023-04-21T05:04:27.376Z,53.94
2023-04-21T05:06:54.706Z,54.03
2023-04-21T05:09:21.752Z,54.07
2023-04-21T05:11:48.838Z,53.82
2023-04-21T05:14:16.059Z,54.06
2023-04-21T05:16:43.750Z,54.02
2023-04-21T05:19:10.776Z,53.94
2023-04-21T05:21:38.945Z,53.83
2023-04-21T05:24:06.072Z,53.85
2023-04-21T05:26:33.012Z,53.86
2023-04-21T05:28:59.988Z,53.70
2023-04-21T05:31:27.353Z,53.44
2023-04-21T05:33:54.360Z,53.57
2023-04-21T05:36:21.284Z,53.42
2023-04-21T05:38:49.555Z,53.13
2023-04-21T05:41:16.448Z,53.25
2023-04-21T05:43:43.611Z,53.34
2023-04-21T05:46:11.501Z,53.18
2023-04-21T05:48:38.625Z,53.08
2023-04-21T05:51:10.360Z,52.90
2023-04-21T05:53:37.541Z,52.88
2023-04-21T05:56:08.694Z,52.67
2023-04-21T05:58:36.013Z,52.58
2023-04-21T06:01:03.322Z,52.45
2023-04-21T06:03:32.007Z,52.28
2023-04-21T06:06:01.278Z,52.20
2023-04-21T06:08:28.217Z,52.13
2023-04-21T06:10:55.466Z,51.96
2023-04-21T06:13:23.885Z,51.70
2023-04-21T06:15:50.791Z,51.54
2023-04-21T06:18:17.777Z,51.58
2023-04-21T06:20:50.866Z,51.36
2023-04-21T06:23:18.152Z,51.35
2023-04-21T06:25:45.371Z,51.30
2023-04-21T06:28:12.721Z,51.02
2023-04-21T06:30:41.077Z,50.99
2023-04-21T06:33:08.084Z,50.68
2023-04-21T06:35:35.071Z,50.46
2023-04-21T06:38:02.472Z,50.38
2023-04-21T06:40:29.391Z,50.11
2023-04-21T06:42:56.288Z,50.23
2023-04-21T06:45:23.524Z,49.71
2023-04-21T06:47:51.802Z,49.56
2023-04-21T06:50:18.904Z,49.25
2023-04-21T06:52:45.782Z,49.35
2023-04-21T06:55:12.898Z,49.15
2023-04-21T06:57:39.800Z,48.83
2023-04-21T07:00:08.473Z,49.18
2023-04-21T07:02:35.726Z,48.65
2023-04-21T07:05:04.766Z,48.31
2023-04-21T07:07:31.698Z,48.31
2023-04-21T07:09:58.658Z,48.34
2023-04-21T07:12:25.692Z,47.94
2023-04-21T07:14:52.589Z,47.66
2023-04-21T07:17:19.480Z,47.49
2023-04-21T07:19:46.401Z,47.57
2023-04-21T07:22:14.757Z,47.16
2023-04-21T07:24:41.656Z,46.93
2023-04-21T07:27:08.547Z,46.57
2023-04-21T07:29:35.552Z,45.97
2023-04-21T07:32:02.544Z,45.52
2023-04-21T07:34:29.431Z,44.04
2023-04-21T07:36:56.917Z,42.39
2023-04-21T07:39:25.178Z,41.11
2023-04-21T07:41:52.087Z,39.07
2023-04-21T07:44:18.976Z,37.94
2023-04-21T07:46:46.336Z,36.11
2023-04-21T07:49:13.891Z,35.09
2023-04-21T07:51:41.370Z,33.94
2023-04-21T07:54:08.328Z,32.65
2023-04-21T07:56:36.570Z,32.22
2023-04-21T07:59:03.567Z,30.80
2023-04-21T08:01:30.654Z,30.13
2023-04-21T08:03:57.657Z,29.06
2023-04-21T08:06:24.891Z,28.22
2023-04-21T08:08:57.544Z,27.53
2023-04-21T08:11:28.522Z,26.51
2023-04-21T08:14:00.107Z,25.89
2023-04-21T08:16:27.163Z,25.66
2023-04-21T08:18:54.233Z,25.25
2023-04-21T08:21:21.254Z,24.92
2023-04-21T08:23:48.162Z,23.90
2023-04-21T08:26:15.585Z,24.04
2023-04-21T08:28:42.518Z,23.13
2023-04-21T08:31:11.025Z,22.74
2023-04-21T08:33:49.905Z,22.20
2023-04-21T08:36:29.542Z,22.27
2023-04-21T08:39:04.071Z,22.31
2023-04-21T08:41:31.585Z,21.27
2023-04-21T08:43:59.658Z,21.18
2023-04-21T08:46:32.389Z,21.16
2023-04-21T08:49:00.210Z,21.18
2023-04-21T08:51:28.684Z,20.69
2023-04-21T08:53:55.918Z,20.67
2023-04-21T08:56:26.198Z,20.22
2023-04-21T08:58:53.967Z,19.87
2023-04-21T09:01:21.429Z,19.70
2023-04-21T09:03:49.913Z,19.77
2023-04-21T09:06:20.646Z,19.67
2023-04-21T09:08:57.713Z,18.87
2023-04-21T09:11:54.765Z,19.03
2023-04-21T09:14:21.862Z,19.27
2023-04-21T09:17:01.154Z,18.67
2023-04-21T09:19:30.592Z,18.40
2023-04-21T09:22:00.429Z,17.27
2023-04-21T09:24:27.867Z,17.90
2023-04-21T09:26:55.225Z,17.12
2023-04-21T09:29:23.984Z,17.56
2023-04-21T09:31:52.678Z,17.49
2023-04-21T09:34:24.735Z,17.82
2023-04-21T09:37:02.517Z,16.79
2023-04-21T09:39:43.087Z,16.73
2023-04-21T09:42:13.849Z,16.61
2023-04-21T09:44:53.298Z,16.74
2023-04-21T09:47:27.274Z,16.08
2023-04-21T09:49:56.273Z,15.73
2023-04-21T09:52:28.895Z,16.00
2023-04-21T09:55:04.433Z,15.33
2023-04-21T09:57:37.656Z,15.17
2023-04-21T10:00:09.668Z,14.99
2023-04-21T10:02:45.126Z,14.46
2023-04-21T10:05:12.908Z,14.57
2023-04-21T10:07:41.512Z,14.75
2023-04-21T10:10:18.857Z,14.86
2023-04-21T10:12:46.372Z,14.43
2023-04-21T10:15:31.584Z,13.98
2023-04-21T10:18:17.047Z,13.42
2023-04-21T10:20:56.083Z,13.65
2023-04-21T10:23:30.409Z,13.21
2023-04-21T10:26:12.809Z,13.49
2023-04-21T10:28:47.314Z,13.59
2023-04-21T10:31:20.313Z,13.57
2023-04-21T10:34:13.327Z,13.87
2023-04-21T10:36:51.722Z,13.43
2023-04-21T10:39:35.699Z,13.20
2023-04-21T10:42:37.040Z,12.97
2023-04-21T10:45:12.102Z,13.39
2023-04-21T10:47:49.695Z,13.31
2023-04-21T10:50:23.874Z,12.72
2023-04-21T10:52:59.156Z,12.27
2023-04-21T10:55:29.976Z,13.02
2023-04-21T10:57:59.080Z,13.19
2023-04-21T11:00:26.330Z,13.22
2023-04-21T11:03:00.230Z,13.94
2023-04-21T11:05:30.174Z,13.85
2023-04-21T11:08:12.750Z,13.75
2023-04-21T11:10:59.017Z,13.54
2023-04-21T11:13:33.364Z,13.38
2023-04-21T11:16:04.854Z,13.19
2023-04-21T11:18:41.294Z,13.08
2023-04-21T11:21:22.430Z,14.55
2023-04-21T11:23:54.692Z,14.54
2023-04-21T11:26:34.440Z,14.85
2023-04-21T11:29:07.291Z,15.48
2023-04-21T11:31:36.222Z,16.68
2023-04-21T11:34:06.899Z,16.78
2023-04-21T11:36:34.515Z,16.38
2023-04-21T11:39:08.066Z,16.10
2023-04-21T11:41:49.066Z,16.32
2023-04-21T11:44:33.405Z,16.17
2023-04-21T11:47:00.907Z,16.14
2023-04-21T11:49:29.463Z,16.42
2023-04-21T11:51:56.659Z,16.82
2023-04-21T11:54:24.360Z,16.73
2023-04-21T11:56:55.090Z,17.82
2023-04-21T11:59:26.505Z,17.91
2023-04-21T12:01:54.979Z,18.09
2023-04-21T12:04:23.749Z,18.46
2023-04-21T12:06:59.011Z,18.29
2023-04-21T12:09:28.183Z,18.57
2023-04-21T12:11:58.896Z,17.88
2023-04-21T12:14:29.344Z,18.22
2023-04-21T12:16:58.783Z,18.20
2023-04-21T12:19:37.927Z,17.54
2023-04-21T12:22:08.401Z,17.01
2023-04-21T12:24:36.827Z,17.15
2023-04-21T12:27:06.440Z,16.35
2023-04-21T12:29:38.341Z,16.93
2023-04-21T12:32:06.375Z,16.56
2023-04-21T12:34:34.273Z,16.13
2023-04-21T12:37:02.036Z,15.26
2023-04-21T12:39:30.118Z,15.41
2023-04-21T12:41:57.709Z,15.15
2023-04-21T12:44:26.499Z,13.85
2023-04-21T12:46:54.208Z,14.07
2023-04-21T12:49:21.126Z,14.48
2023-04-21T12:51:49.474Z,14.78
2023-04-21T12:54:17.611Z,14.81
2023-04-21T12:56:44.736Z,15.63
2023-04-21T12:59:12.000Z,14.80
2023-04-21T13:01:42.509Z,14.72
2023-04-21T13:04:10.162Z,15.02
2023-04-21T13:06:39.293Z,14.80
2023-04-21T13:09:06.302Z,15.11
2023-04-21T13:11:33.389Z,15.40
2023-04-21T13:14:00.562Z,15.51
2023-04-21T13:16:30.082Z,16.04
2023-04-21T13:18:59.001Z,15.92
2023-04-21T13:21:26.349Z,15.57
2023-04-21T13:23:53.391Z,15.25
2023-04-21T13:26:21.015Z,15.16
2023-04-21T13:28:48.271Z,15.27
2023-04-21T13:31:15.354Z,15.40
2023-04-21T13:33:42.461Z,15.83
2023-04-21T13:36:12.845Z,15.51
2023-04-21T13:38:40.766Z,15.07
2023-04-21T13:41:08.479Z,14.66
2023-04-21T13:43:35.695Z,14.75
2023-04-21T13:46:02.934Z,14.33
2023-04-21T13:48:30.050Z,14.15
2023-04-21T13:50:57.058Z,14.04
2023-04-21T13:53:25.479Z,14.08
2023-04-21T13:55:54.554Z,14.42
2023-04-21T13:58:22.053Z,14.74
2023-04-21T14:00:49.232Z,14.39
2023-04-21T14:03:16.687Z,13.77
2023-04-21T14:05:44.177Z,13.88
2023-04-21T14:08:11.464Z,13.77
2023-04-21T14:10:39.986Z,14.01
2023-04-21T14:13:07.056Z,14.62
2023-04-21T14:15:34.121Z,14.79
2023-04-21T14:18:01.293Z,14.98
2023-04-21T14:20:28.562Z,14.98
2023-04-21T14:22:55.620Z,16.13
2023-04-21T14:25:22.644Z,16.58
2023-04-21T14:27:50.953Z,16.40
2023-04-21T14:30:18.042Z,16.20
2023-04-21T14:32:47.663Z,16.12
2023-04-21T14:35:18.117Z,16.06
2023-04-21T14:37:45.200Z,16.14
2023-04-21T14:40:12.201Z,16.02
2023-04-21T14:42:39.111Z,15.81
2023-04-21T14:45:09.820Z,15.63
2023-04-21T14:47:37.955Z,16.19
2023-04-21T14:50:07.167Z,16.10
2023-04-21T14:52:34.459Z,15.96
2023-04-21T14:55:01.502Z,16.12
2023-04-21T14:57:28.480Z,16.24
2023-04-21T14:59:55.934Z,16.35
2023-04-21T15:02:24.566Z,16.67
2023-04-21T15:04:51.871Z,16.58
2023-04-21T15:07:23.902Z,16.48
2023-04-21T15:09:52.113Z,16.74
2023-04-21T15:12:19.260Z,17.09
2023-04-21T15:14:46.318Z,17.41
2023-04-21T15:17:13.544Z,17.36
2023-04-21T15:19:42.106Z,17.44
2023-04-21T15:22:09.259Z,17.71
2023-04-21T15:24:36.223Z,18.26
2023-04-21T15:27:07.167Z,18.39
2023-04-21T15:29:37.550Z,18.64
2023-04-21T15:32:04.932Z,18.27
2023-04-21T15:34:31.936Z,18.71
2023-04-21T15:37:00.327Z,18.53
2023-04-21T15:39:27.288Z,18.58
2023-04-21T15:41:55.078Z,18.51
2023-04-21T15:44:22.353Z,18.74
2023-04-21T15:46:50.533Z,18.96
2023-04-21T15:49:18.072Z,19.26
2023-04-21T15:51:46.117Z,19.11
2023-04-21T15:54:14.558Z,19.11
2023-04-21T15:56:41.493Z,19.17
2023-04-21T15:59:08.619Z,19.89
2023-04-21T16:01:36.001Z,20.01
2023-04-21T16:04:03.431Z,19.98
2023-04-21T16:06:31.244Z,19.64
2023-04-21T16:08:58.341Z,18.86
2023-04-21T16:11:28.035Z,19.15
2023-04-21T16:13:55.545Z,19.21
2023-04-21T16:16:22.720Z,19.22
2023-04-21T16:18:49.641Z,19.41
2023-04-21T16:21:16.673Z,19.49
2023-04-21T16:23:43.771Z,19.48
2023-04-21T16:26:10.736Z,19.47
2023-04-21T16:28:39.075Z,19.35
2023-04-21T16:31:06.275Z,19.14
2023-04-21T16:33:33.309Z,18.82
2023-04-21T16:36:00.389Z,18.85
2023-04-21T16:38:27.329Z,18.97
2023-04-21T16:40:54.312Z,18.91
2023-04-21T16:43:21.261Z,19.39
2023-04-21T16:45:49.607Z,19.40
2023-04-21T16:48:16.646Z,19.56
2023-04-21T16:50:45.131Z,19.72
2023-04-21T16:53:12.207Z,19.95
2023-04-21T16:55:39.536Z,20.12
2023-04-21T16:58:06.471Z,19.85
2023-04-21T17:00:33.542Z,20.04
2023-04-21T17:03:01.950Z,20.14
2023-04-21T17:05:28.998Z,20.41
2023-04-21T17:07:56.126Z,20.66
2023-04-21T17:10:23.154Z,20.62
2023-04-21T17:12:50.052Z,20.73
2023-04-21T17:15:17.147Z,20.53
2023-04-21T17:17:44.818Z,20.94
2023-04-21T17:20:14.408Z,20.75
2023-04-21T17:22:42.903Z,21.19
2023-04-21T17:25:11.193Z,21.38
2023-04-21T17:27:38.806Z,21.69
2023-04-21T17:30:08.933Z,21.44
2023-04-21T17:32:36.502Z,21.33
2023-04-21T17:35:05.634Z,21.82
2023-04-21T17:37:34.501Z,22.17
2023-04-21T17:40:02.891Z,22.06
2023-04-21T17:42:31.027Z,22.33
2023-04-21T17:44:57.935Z,22.55
2023-04-21T17:47:24.932Z,22.23
2023-04-21T17:49:52.075Z,22.28
2023-04-21T17:52:19.360Z,23.03
2023-04-21T17:54:47.690Z,23.11
2023-04-21T17:57:14.669Z,23.05
2023-04-21T17:59:41.974Z,23.27
2023-04-21T18:02:09.118Z,23.40
2023-04-21T18:04:36.867Z,23.58
2023-04-21T18:07:15.311Z,23.63
2023-04-21T18:09:49.831Z,24.16
2023-04-21T18:12:19.876Z,24.29
2023-04-21T18:14:46.813Z,24.27
2023-04-21T18:17:15.955Z,24.30
2023-04-21T18:19:44.212Z,24.58
2023-04-21T18:22:11.995Z,24.34
2023-04-21T18:24:39.899Z,24.39
2023-04-21T18:27:07.399Z,24.60
2023-04-21T18:29:37.280Z,25.02
2023-04-21T18:32:26.151Z,25.34
2023-04-21T18:34:56.349Z,25.27
2023-04-21T18:37:23.298Z,25.46
2023-04-21T18:39:50.202Z,25.70
2023-04-21T18:42:19.640Z,26.01
2023-04-21T18:44:48.223Z,25.88
2023-04-21T18:47:15.574Z,26.03
2023-04-21T18:49:42.640Z,26.42
2023-04-21T18:52:09.698Z,26.39
2023-04-21T18:54:36.968Z,26.60
2023-04-21T18:57:04.553Z,26.48
2023-04-21T18:59:31.892Z,26.81
2023-04-21T19:02:01.149Z,26.82
2023-04-21T19:04:28.252Z,26.88
2023-04-21T19:06:55.348Z,27.05
2023-04-21T19:09:22.767Z,27.16
2023-04-21T19:11:49.834Z,27.13
2023-04-21T19:14:16.732Z,27.31
2023-04-21T19:16:43.661Z,27.57
2023-04-21T19:19:12.226Z,27.59
2023-04-21T19:21:39.417Z,28.13
2023-04-21T19:24:06.808Z,28.12
2023-04-21T19:26:34.486Z,28.27
2023-04-21T19:29:01.876Z,28.36
2023-04-21T19:31:29.368Z,28.76
2023-04-21T19:33:56.576Z,28.45
2023-04-21T19:36:25.215Z,28.50
2023-04-21T19:38:52.550Z,28.82
2023-04-21T19:41:19.837Z,28.89
2023-04-21T19:43:47.103Z,29.05
2023-04-21T19:46:14.166Z,29.24
2023-04-21T19:48:42.714Z,29.15
2023-04-21T19:51:09.739Z,28.84
2023-04-21T19:53:37.972Z,28.64
2023-04-21T19:56:05.364Z,28.99
2023-04-21T19:58:40.438Z,29.14
2023-04-21T20:01:08.221Z,29.54
2023-04-21T20:03:35.451Z,29.40
2023-04-21T20:06:04.696Z,29.33
2023-04-21T20:08:31.813Z,29.53
2023-04-21T20:11:00.118Z,29.79
2023-04-21T20:13:27.148Z,29.50
2023-04-21T20:15:55.246Z,29.59
2023-04-21T20:18:22.177Z,29.42
2023-04-21T20:20:49.081Z,29.71
2023-04-21T20:23:16.377Z,29.92
2023-04-21T20:25:43.343Z,30.28
2023-04-21T20:28:11.832Z,30.33
2023-04-21T20:30:38.815Z,30.08
2023-04-21T20:33:05.802Z,30.41
2023-04-21T20:35:39.127Z,30.20
2023-04-21T20:38:07.860Z,30.62
2023-04-21T20:40:36.190Z,30.02
2023-04-21T20:43:06.205Z,30.12
2023-04-21T20:45:34.959Z,30.21
2023-04-21T20:48:01.884Z,30.91
2023-04-21T20:50:28.863Z,30.97
2023-04-21T20:52:56.632Z,30.69
2023-04-21T20:55:23.561Z,30.53
2023-04-21T20:57:51.022Z,30.74
2023-04-21T21:00:18.833Z,31.12
2023-04-21T21:02:47.324Z,30.49
2023-04-21T21:05:14.368Z,31.05
2023-04-21T21:07:41.356Z,30.64
2023-04-21T21:10:11.178Z,31.14
2023-04-21T21:12:38.227Z,30.70
2023-04-21T21:15:06.572Z,31.34
2023-04-21T21:17:33.830Z,31.21
2023-04-21T21:20:02.123Z,31.27
2023-04-21T21:22:29.064Z,30.81
2023-04-21T21:24:56.027Z,31.34
2023-04-21T21:27:23.679Z,31.35
2023-04-21T21:29:50.712Z,31.22
2023-04-21T21:32:17.771Z,31.61
2023-04-21T21:34:44.740Z,31.75
2023-04-21T21:37:13.014Z,32.00
2023-04-21T21:39:40.096Z,31.96
2023-04-21T21:42:07.118Z,31.85
2023-04-21T21:44:34.021Z,32.35
2023-04-21T21:47:01.218Z,32.41
2023-04-21T21:49:28.208Z,32.18
2023-04-21T21:51:55.274Z,32.21
2023-04-21T21:54:23.541Z,32.58
2023-04-21T21:56:50.585Z,32.28
2023-04-21T21:59:17.567Z,32.57
2023-04-21T22:01:44.711Z,32.62
2023-04-21T22:04:11.781Z,32.51
2023-04-21T22:06:39.061Z,33.28
2023-04-21T22:09:06.112Z,32.93
2023-04-21T22:11:34.638Z,33.06
2023-04-21T22:14:14.516Z,33.58
2023-04-21T22:16:48.585Z,33.52
2023-04-21T22:19:17.545Z,33.50
2023-04-21T22:21:44.518Z,33.88
2023-04-21T22:24:11.518Z,34.08
2023-04-21T22:26:39.930Z,34.04
2023-04-21T22:29:06.928Z,34.19
2023-04-21T22:31:34.036Z,34.23
2023-04-21T22:34:01.155Z,34.07
2023-04-21T22:36:28.213Z,34.47
2023-04-21T22:38:55.246Z,34.19
2023-04-21T22:41:22.407Z,34.48
2023-04-21T22:43:51.578Z,34.43
2023-04-21T22:46:19.090Z,34.66
2023-04-21T22:48:46.711Z,35.06
2023-04-21T22:51:14.359Z,34.83
2023-04-21T22:53:41.277Z,35.31
2023-04-21T22:56:08.270Z,35.51
2023-04-21T22:58:35.751Z,35.34
2023-04-21T23:01:04.087Z,35.70
2023-04-21T23:03:31.382Z,35.67
2023-04-21T23:05:58.902Z,35.61
2023-04-21T23:08:26.208Z,35.89
2023-04-21T23:10:53.235Z,35.71
2023-04-21T23:13:20.490Z,36.00
2023-04-21T23:15:47.357Z,36.19
2023-04-21T23:18:15.751Z,36.14
2023-04-21T23:20:42.716Z,36.17
2023-04-21T23:23:09.690Z,36.18
2023-04-21T23:25:36.635Z,36.19
2023-04-21T23:28:03.583Z,36.39
2023-04-21T23:30:30.579Z,36.24
2023-04-21T23:32:57.651Z,36.35
2023-04-21T23:35:26.168Z,36.20
2023-04-21T23:37:53.060Z,36.19
2023-04-21T23:40:20.174Z,36.42
2023-04-21T23:42:47.756Z,36.56
2023-04-21T23:45:15.522Z,36.58
2023-04-21T23:47:42.586Z,36.56
2023-04-21T23:50:11.025Z,36.66
2023-04-21T23:52:41.925Z,36.57
2023-04-21T23:55:11.873Z,36.49
2023-04-21T23:57:38.899Z,36.33
